createdAt,value
2018-07-09T00:31:30.669Z,16.60
2018-07-09T00:34:41.471Z,16.70
2018-07-09T00:37:25.885Z,16.60
2018-07-09T01:47:55.982Z,16.60
2018-07-09T01:50:27.823Z,15.80
2018-07-09T01:52:57.213Z,15.70
2018-07-09T01:55:26.012Z,15.60
2018-07-09T01:57:54.817Z,15.50
2018-07-09T02:00:24.749Z,15.40
2018-07-09T02:02:53.416Z,15.40
2018-07-09T02:05:21.972Z,15.30
2018-07-09T02:07:51.492Z,15.30
2018-07-09T02:10:22.417Z,15.30
2018-07-09T02:12:51.089Z,15.20
2018-07-09T02:15:19.841Z,15.10
2018-07-09T02:17:54.073Z,15.10
2018-07-09T02:20:22.807Z,15.20
2018-07-09T02:22:51.373Z,15.10
2018-07-09T02:25:20.048Z,15.30
2018-07-09T02:27:48.807Z,15.40
2018-07-09T02:30:17.447Z,15.30
2018-07-09T02:32:46.127Z,15.30
2018-07-09T02:35:14.783Z,15.30
2018-07-09T02:37:44.286Z,15.20
2018-07-09T02:40:12.979Z,15.20
2018-07-09T02:42:41.676Z,15.10
2018-07-09T02:45:10.196Z,15.00
2018-07-09T02:47:38.899Z,15.00
2018-07-09T02:50:08.295Z,15.00
2018-07-09T02:52:36.958Z,14.90
2018-07-09T02:55:05.799Z,14.80
2018-07-09T02:57:34.440Z,14.70
2018-07-09T03:00:03.103Z,14.80
2018-07-09T03:02:31.661Z,14.70
2018-07-09T03:05:00.328Z,14.80
2018-07-09T03:07:29.078Z,14.70
2018-07-09T03:09:57.594Z,14.60
2018-07-09T03:12:26.954Z,14.60
2018-07-09T03:14:55.542Z,14.50
2018-07-09T03:17:24.177Z,14.40
2018-07-09T03:19:53.114Z,14.40
2018-07-09T03:22:22.565Z,14.40
2018-07-09T03:24:51.182Z,14.30
2018-07-09T03:27:19.913Z,14.40
2018-07-09T03:29:48.458Z,14.40
2018-07-09T03:32:17.228Z,14.30
2018-07-09T03:34:45.865Z,14.40
2018-07-09T03:37:14.515Z,14.50
2018-07-09T03:39:43.104Z,14.40
2018-07-09T03:42:11.713Z,14.40
2018-07-09T03:44:40.459Z,14.40
2018-07-09T03:47:09.018Z,14.30
2018-07-09T03:49:44.698Z,14.30
2018-07-09T03:52:13.468Z,14.20
2018-07-09T03:54:42.025Z,14.40
2018-07-09T03:57:10.590Z,14.50
2018-07-09T03:59:39.234Z,14.40
2018-07-09T04:02:07.804Z,14.40
2018-07-09T04:04:36.323Z,14.40
2018-07-09T04:07:04.512Z,14.40
2018-07-09T04:09:32.695Z,14.50
2018-07-09T04:12:00.846Z,14.50
2018-07-09T04:14:32.633Z,14.40
2018-07-09T04:19:29.629Z,14.30
2018-07-09T04:21:59.297Z,14.30
2018-07-09T04:24:27.571Z,14.40
2018-07-09T04:26:55.782Z,14.50
2018-07-09T04:29:24.372Z,14.50
2018-07-09T04:31:52.702Z,14.50
2018-07-09T04:34:20.822Z,14.50
2018-07-09T04:36:49.088Z,14.60
2018-07-09T04:39:17.410Z,14.60
2018-07-09T04:41:46.541Z,14.50
2018-07-09T04:44:14.844Z,14.50
2018-07-09T04:46:43.075Z,14.50
2018-07-09T04:49:11.338Z,14.50
2018-07-09T04:51:39.604Z,14.50
2018-07-09T04:54:08.100Z,14.50
2018-07-09T04:56:36.735Z,14.50
2018-07-09T04:59:05.282Z,14.60
2018-07-09T05:01:33.672Z,14.60
2018-07-09T05:04:01.987Z,14.60
2018-07-09T05:06:30.376Z,14.60
2018-07-09T05:08:58.624Z,14.70
2018-07-09T05:11:26.981Z,14.70
2018-07-09T05:13:55.316Z,14.80
2018-07-09T05:16:23.564Z,14.90
2018-07-09T05:18:51.830Z,15.10
2018-07-09T05:21:20.178Z,15.10
2018-07-09T05:23:48.576Z,15.20
2018-07-09T05:26:16.940Z,15.30
2018-07-09T05:28:45.917Z,15.40
2018-07-09T05:31:21.549Z,15.40
2018-07-09T05:33:50.044Z,15.60
2018-07-09T05:36:18.454Z,15.60
2018-07-09T05:38:46.886Z,15.70
2018-07-09T05:41:15.163Z,15.80
2018-07-09T05:43:44.081Z,15.80
2018-07-09T05:46:12.462Z,15.90
2018-07-09T05:48:40.681Z,16.00
2018-07-09T05:51:09.172Z,16.00
2018-07-09T05:53:37.605Z,16.10
2018-07-09T05:56:06.077Z,16.10
2018-07-09T05:58:34.524Z,16.20
2018-07-09T06:01:02.950Z,16.30
2018-07-09T06:03:31.367Z,16.40
2018-07-09T06:05:59.689Z,16.50
2018-07-09T06:08:28.025Z,16.60
2018-07-09T06:10:56.295Z,16.70
2018-07-09T06:13:24.500Z,16.80
2018-07-09T06:15:52.715Z,16.90
2018-07-09T06:18:20.953Z,17.10
2018-07-09T06:20:49.149Z,17.30
2018-07-09T06:23:17.393Z,17.40
2018-07-09T06:25:45.624Z,17.50
2018-07-09T06:28:13.866Z,17.70
2018-07-09T06:30:42.095Z,17.80
2018-07-09T06:33:10.335Z,18.00
2018-07-09T06:35:38.519Z,18.20
2018-07-09T06:38:06.784Z,18.40
2018-07-09T06:40:35.019Z,18.80
2018-07-09T06:43:03.324Z,19.40
2018-07-09T06:45:31.635Z,20.40
2018-07-09T06:47:59.858Z,21.40
2018-07-09T06:50:28.098Z,22.30
2018-07-09T06:52:56.362Z,23.10
2018-07-09T06:55:24.571Z,23.30
2018-07-09T06:57:52.844Z,23.70
2018-07-09T07:00:21.086Z,23.90
2018-07-09T07:02:49.296Z,23.70
2018-07-09T07:05:17.497Z,23.60
2018-07-09T07:07:45.708Z,23.60
2018-07-09T07:10:13.926Z,23.60
2018-07-09T07:12:42.158Z,23.20
2018-07-09T07:15:10.381Z,23.20
2018-07-09T07:17:38.623Z,23.30
2018-07-09T07:20:06.839Z,23.50
2018-07-09T07:22:35.082Z,23.50
2018-07-09T07:25:03.318Z,23.60
2018-07-09T07:27:31.591Z,23.40
2018-07-09T07:29:59.825Z,23.40
2018-07-09T07:32:28.066Z,23.20
2018-07-09T07:34:56.433Z,23.00
2018-07-09T07:37:24.718Z,22.90
2018-07-09T07:39:52.936Z,22.90
2018-07-09T07:42:21.193Z,22.90
2018-07-09T07:44:49.553Z,23.00
2018-07-09T07:47:17.790Z,23.10
2018-07-09T07:49:46.036Z,23.20
2018-07-09T07:54:42.297Z,23.50
2018-07-09T07:57:11.222Z,23.90
2018-07-09T07:59:39.457Z,24.10
2018-07-09T08:02:07.742Z,24.60
2018-07-09T08:04:35.984Z,24.90
2018-07-09T08:07:04.239Z,25.10
2018-07-09T08:09:32.587Z,25.50
2018-07-09T08:12:59.668Z,26.00
2018-07-09T08:14:29.093Z,26.50
2018-07-09T08:16:57.378Z,26.80
2018-07-09T08:19:25.680Z,26.90
2018-07-09T08:21:54.235Z,27.30
2018-07-09T08:24:22.572Z,27.90
2018-07-09T08:26:50.947Z,28.00
2018-07-09T08:29:19.249Z,28.20
2018-07-09T08:31:47.542Z,28.40
2018-07-09T08:34:15.880Z,28.60
2018-07-09T08:36:44.124Z,28.60
2018-07-09T08:39:12.397Z,29.00
2018-07-09T08:41:40.713Z,29.30
2018-07-09T08:44:09.041Z,29.30
2018-07-09T08:49:11.969Z,29.70
2018-07-09T08:51:40.405Z,29.80
2018-07-09T08:54:08.906Z,29.90
2018-07-09T08:56:37.340Z,29.80
2018-07-09T08:59:05.706Z,29.80
2018-07-09T09:01:34.069Z,29.90
2018-07-09T09:04:02.483Z,29.90
2018-07-09T09:06:30.785Z,30.10
2018-07-09T09:08:59.085Z,30.20
2018-07-09T09:11:27.400Z,30.20
2018-07-09T09:13:55.768Z,30.00
2018-07-09T09:16:24.114Z,30.10
2018-07-09T09:18:52.840Z,29.90
2018-07-09T09:21:21.114Z,29.90
2018-07-09T09:23:49.439Z,29.70
2018-07-09T09:28:45.760Z,29.90
2018-07-09T09:31:14.021Z,29.90
2018-07-09T09:33:42.317Z,29.90
2018-07-09T09:36:10.609Z,29.90
2018-07-09T09:41:06.982Z,29.90
2018-07-09T09:43:35.347Z,30.10
2018-07-09T09:48:31.609Z,30.10
2018-07-09T09:50:59.928Z,30.10
2018-07-09T09:53:28.240Z,30.00
2018-07-09T09:55:56.569Z,30.20
2018-07-09T09:58:24.841Z,30.40
2018-07-09T10:00:53.137Z,30.40
2018-07-09T10:03:22.066Z,30.30
2018-07-09T10:05:52.867Z,30.50
2018-07-09T10:08:21.809Z,30.70
2018-07-09T10:10:50.141Z,30.70
2018-07-09T10:13:18.428Z,30.90
2018-07-09T10:15:46.724Z,30.90
2018-07-09T10:18:14.996Z,30.70
2018-07-09T10:20:43.266Z,31.00
2018-07-09T10:23:11.713Z,31.10
2018-07-09T10:25:39.842Z,31.20
2018-07-09T10:30:36.192Z,31.50
2018-07-09T10:33:04.454Z,31.60
2018-07-09T10:35:32.765Z,31.80
2018-07-09T10:41:07.421Z,32.00
2018-07-09T10:43:35.751Z,32.30
2018-07-09T10:46:04.034Z,32.20
2018-07-09T10:48:32.367Z,32.40
2018-07-09T10:51:00.645Z,32.40
2018-07-09T10:53:29.109Z,32.40
2018-07-09T10:55:57.506Z,32.40
2018-07-09T10:58:25.923Z,32.50
2018-07-09T11:01:21.742Z,32.50
2018-07-09T11:03:50.149Z,32.60
2018-07-09T11:06:18.718Z,32.50
2018-07-09T11:11:39.576Z,32.70
2018-07-09T11:14:09.256Z,32.50
2018-07-09T11:16:37.843Z,32.30
2018-07-09T11:19:06.114Z,32.20
2018-07-09T11:21:34.398Z,32.10
2018-07-09T11:24:02.603Z,31.80
2018-07-09T11:26:30.811Z,31.80
2018-07-09T11:28:59.324Z,31.60
2018-07-09T11:31:27.725Z,31.60
2018-07-09T11:33:56.784Z,31.50
2018-07-09T11:36:25.289Z,31.40
2018-07-09T11:38:54.009Z,31.30
2018-07-09T11:41:22.370Z,31.20
2018-07-09T11:43:50.697Z,30.90
2018-07-09T11:46:19.139Z,30.80
2018-07-09T11:51:15.462Z,30.40
2018-07-09T11:53:43.699Z,30.40
2018-07-09T11:56:11.981Z,30.20
2018-07-09T11:58:40.984Z,30.00
2018-07-09T12:01:09.559Z,29.90
2018-07-09T12:03:58.854Z,29.90
2018-07-09T12:06:27.488Z,29.80
2018-07-09T12:08:56.060Z,29.70
2018-07-09T12:11:24.718Z,29.60
2018-07-09T12:13:53.456Z,29.60
2018-07-09T12:16:22.107Z,29.50
2018-07-09T12:18:50.629Z,29.40
2018-07-09T12:21:19.261Z,29.40
2018-07-09T12:23:47.692Z,29.30
2018-07-09T12:26:16.189Z,29.20
2018-07-09T12:28:44.772Z,29.10
2018-07-09T12:31:13.236Z,29.00
2018-07-09T12:33:41.751Z,28.90
2018-07-09T12:36:10.261Z,28.80
2018-07-09T12:38:38.835Z,28.80
2018-07-09T12:41:07.492Z,28.80
2018-07-09T12:43:35.994Z,28.70
2018-07-09T12:46:04.437Z,28.80
2018-07-09T12:48:32.997Z,28.70
2018-07-09T12:51:01.766Z,28.70
2018-07-09T12:53:30.362Z,28.70
2018-07-09T12:55:59.013Z,28.60
2018-07-09T12:58:27.578Z,28.50
2018-07-09T13:00:56.380Z,28.40
2018-07-09T13:03:25.155Z,28.40
2018-07-09T13:05:53.805Z,28.40
2018-07-09T13:08:22.513Z,28.40
2018-07-09T13:10:51.030Z,28.30
2018-07-09T13:13:19.537Z,28.30
2018-07-09T13:15:47.995Z,28.30
2018-07-09T13:18:16.721Z,28.20
2018-07-09T13:20:45.485Z,28.20
2018-07-09T13:23:14.119Z,28.10
2018-07-09T13:25:42.804Z,28.10
2018-07-09T13:28:11.508Z,28.10
2018-07-09T13:30:40.034Z,28.10
2018-07-09T13:33:08.701Z,28.10
2018-07-09T13:35:37.340Z,28.10
2018-07-09T13:40:36.241Z,27.90
2018-07-09T13:43:04.780Z,27.90
2018-07-09T13:45:33.485Z,27.90
2018-07-09T13:48:01.845Z,27.80
2018-07-09T13:50:30.434Z,27.90
2018-07-09T13:52:59.107Z,27.80
2018-07-09T13:55:27.907Z,27.70
2018-07-09T13:57:56.565Z,27.70
2018-07-09T14:00:25.270Z,27.70
2018-07-09T14:02:54.074Z,27.60
2018-07-09T14:05:22.901Z,27.60
2018-07-09T14:07:52.023Z,27.60
2018-07-09T14:10:20.655Z,27.60
2018-07-09T14:12:49.251Z,27.60
2018-07-09T14:15:17.917Z,27.50
2018-07-09T14:17:46.654Z,27.50
2018-07-09T14:20:28.093Z,27.50
2018-07-09T14:22:56.724Z,27.50
2018-07-09T14:25:25.485Z,27.50
2018-07-09T14:27:54.361Z,27.50
2018-07-09T14:30:23.010Z,27.50
2018-07-09T14:32:51.868Z,27.50
2018-07-09T14:35:45.158Z,27.50
2018-07-09T14:38:17.179Z,27.50
2018-07-09T14:40:49.598Z,27.40
2018-07-09T14:43:18.765Z,27.40
2018-07-09T14:45:47.226Z,27.40
2018-07-09T14:48:15.442Z,27.40
2018-07-09T14:50:43.636Z,27.50
2018-07-09T14:55:40.156Z,27.50
2018-07-09T14:58:08.384Z,27.50
2018-07-09T15:00:36.550Z,27.50
2018-07-09T15:03:04.737Z,27.60
2018-07-09T15:05:32.914Z,27.60
2018-07-09T15:08:01.094Z,27.60
2018-07-09T15:10:29.285Z,27.60
2018-07-09T15:12:57.479Z,27.60
2018-07-09T15:15:25.673Z,27.60
2018-07-09T15:17:53.868Z,27.60
2018-07-09T15:20:22.059Z,27.60
2018-07-09T15:22:50.246Z,27.60
2018-07-09T15:25:18.423Z,27.60
2018-07-09T15:27:46.611Z,27.60
2018-07-09T15:30:14.799Z,27.50
2018-07-09T15:32:42.977Z,27.50
2018-07-09T15:35:11.159Z,27.40
2018-07-09T15:37:39.334Z,27.30
2018-07-09T15:40:07.706Z,27.30
2018-07-09T15:42:35.984Z,27.20
2018-07-09T15:45:04.132Z,27.10
2018-07-09T15:47:33.482Z,27.00
2018-07-09T15:50:01.672Z,26.90
2018-07-09T15:52:30.547Z,26.90
2018-07-09T15:54:59.672Z,26.80
2018-07-09T15:57:27.856Z,26.90
2018-07-09T16:00:02.281Z,26.90
2018-07-09T16:02:47.502Z,26.90
2018-07-09T16:05:23.249Z,27.00
2018-07-09T16:07:51.677Z,27.00
2018-07-09T16:10:19.994Z,27.00
2018-07-09T16:12:48.242Z,27.00
2018-07-09T16:15:23.013Z,27.00
2018-07-09T16:17:52.301Z,27.00
2018-07-09T16:21:25.088Z,27.10
2018-07-09T16:24:05.629Z,27.10
2018-07-09T16:26:33.906Z,27.10
2018-07-09T16:29:03.431Z,27.10
2018-07-09T16:31:31.861Z,27.10
2018-07-09T16:34:00.149Z,27.10
2018-07-09T16:36:32.400Z,27.10
2018-07-09T16:41:29.104Z,27.00
2018-07-09T16:43:57.394Z,27.00
2018-07-09T16:46:33.378Z,27.00
2018-07-09T16:49:02.075Z,26.90
2018-07-09T16:51:30.681Z,26.80
2018-07-09T16:53:58.906Z,26.80
2018-07-09T16:56:27.179Z,26.70
2018-07-09T16:58:55.389Z,26.60
2018-07-09T17:01:23.738Z,26.50
2018-07-09T17:03:51.933Z,26.50
2018-07-09T17:06:20.139Z,26.40
2018-07-09T17:08:48.327Z,26.40
2018-07-09T17:11:16.564Z,26.40
2018-07-09T17:13:45.042Z,26.40
2018-07-09T17:21:09.188Z,26.40
2018-07-09T17:23:37.400Z,26.50
2018-07-09T17:26:05.916Z,26.50
2018-07-09T17:33:30.058Z,26.50
2018-07-09T17:35:58.270Z,26.50
2018-07-09T17:38:26.528Z,26.50
2018-07-09T17:40:54.850Z,26.50
2018-07-09T17:43:23.504Z,26.40
2018-07-09T17:45:51.699Z,26.30
2018-07-09T17:48:19.899Z,26.20
2018-07-09T17:50:48.143Z,26.10
2018-07-09T17:53:16.341Z,26.00
2018-07-09T17:55:44.599Z,26.00
2018-07-09T17:58:12.839Z,25.90
2018-07-09T18:00:41.049Z,25.90
2018-07-09T18:03:09.341Z,25.90
2018-07-09T18:08:05.519Z,25.80
2018-07-09T18:10:33.851Z,25.80
2018-07-09T18:13:01.977Z,25.80
2018-07-09T18:15:30.628Z,25.70
2018-07-09T18:20:27.176Z,25.70
2018-07-09T18:25:23.475Z,25.60
2018-07-09T18:27:51.651Z,25.60
2018-07-09T18:30:19.868Z,25.50
2018-07-09T18:32:48.118Z,25.50
2018-07-09T18:35:16.429Z,25.40
2018-07-09T18:37:44.688Z,25.40
2018-07-09T18:40:12.940Z,25.40
2018-07-09T18:42:41.259Z,25.40
2018-07-09T18:45:09.754Z,25.30
2018-07-09T18:47:37.967Z,25.30
2018-07-09T18:50:06.639Z,25.30
2018-07-09T18:52:34.952Z,25.20
2018-07-09T18:55:05.256Z,25.20
2018-07-09T18:57:33.582Z,25.10
2018-07-09T19:00:02.057Z,25.00
2018-07-09T19:02:30.327Z,24.90
2018-07-09T19:04:59.669Z,24.90
2018-07-09T19:07:30.194Z,24.80
2018-07-09T19:09:58.549Z,24.80
2018-07-09T19:12:32.844Z,24.70
2018-07-09T19:15:01.157Z,24.70
2018-07-09T19:18:07.047Z,24.70
2018-07-09T19:21:18.816Z,24.70
2018-07-09T19:23:46.064Z,24.60
2018-07-09T19:26:19.451Z,24.50
2018-07-09T19:28:53.454Z,24.50
2018-07-09T19:31:21.748Z,24.40
2018-07-09T19:33:49.052Z,24.30
2018-07-09T19:36:16.903Z,24.30
2018-07-09T19:38:44.233Z,24.20
2018-07-09T19:41:11.561Z,24.20
2018-07-09T19:43:39.312Z,24.10
2018-07-09T19:46:06.601Z,23.90
2018-07-09T19:48:34.011Z,23.80
2018-07-09T19:51:01.316Z,23.60
2018-07-09T19:53:28.888Z,23.50
2018-07-09T19:56:02.380Z,23.40
2018-07-09T19:58:29.614Z,23.40
2018-07-09T20:00:56.828Z,23.30
2018-07-09T20:03:24.078Z,23.20
2018-07-09T20:05:51.295Z,23.00
2018-07-09T20:08:18.548Z,22.90
2018-07-09T20:10:51.108Z,22.70
2018-07-09T20:13:23.631Z,22.60
2018-07-09T20:15:56.280Z,22.50
2018-07-09T20:18:23.531Z,22.50
2018-07-09T20:20:51.062Z,22.30
2018-07-09T20:23:18.273Z,22.20
2018-07-09T20:25:45.525Z,22.20
2018-07-09T20:28:13.667Z,22.10
2018-07-09T20:30:40.891Z,22.10
2018-07-09T20:33:08.152Z,22.10
2018-07-09T20:35:35.379Z,22.00
2018-07-09T20:38:02.613Z,22.00
2018-07-09T20:40:29.840Z,21.90
2018-07-09T20:42:57.061Z,21.90
2018-07-09T20:45:24.288Z,21.80
2018-07-09T20:47:51.572Z,21.80
2018-07-09T20:50:18.816Z,21.80
2018-07-09T20:52:46.076Z,21.80
2018-07-09T20:55:13.297Z,21.80
2018-07-09T20:57:40.511Z,21.80
2018-07-09T21:00:07.786Z,21.70
2018-07-09T21:02:34.991Z,21.70
2018-07-09T21:05:02.206Z,21.70
2018-07-09T21:07:29.684Z,21.70
2018-07-09T21:09:56.908Z,21.70
2018-07-09T21:12:24.128Z,21.60
2018-07-09T21:14:51.375Z,21.50
2018-07-09T21:17:18.653Z,21.50
2018-07-09T21:19:45.905Z,21.50
2018-07-09T21:22:13.119Z,21.40
2018-07-09T21:24:40.364Z,21.30
2018-07-09T21:27:07.589Z,21.20
2018-07-09T21:29:34.886Z,21.30
2018-07-09T21:32:02.180Z,21.20
2018-07-09T21:34:29.459Z,21.20
2018-07-09T21:36:56.684Z,21.20
2018-07-09T21:39:23.980Z,21.10
2018-07-09T21:41:51.188Z,21.00
2018-07-09T21:44:18.445Z,20.80
2018-07-09T21:46:45.656Z,20.80
2018-07-09T21:49:12.900Z,20.80
2018-07-09T21:51:40.134Z,20.80
2018-07-09T21:54:07.360Z,20.70
2018-07-09T21:56:34.687Z,20.60
2018-07-09T21:59:01.824Z,20.60
2018-07-09T22:01:29.064Z,20.50
2018-07-09T22:03:56.282Z,20.50
2018-07-09T22:06:23.496Z,20.50
2018-07-09T22:08:50.729Z,20.50
2018-07-09T22:11:17.992Z,20.40
2018-07-09T22:13:45.273Z,20.30
2018-07-09T22:18:40.251Z,20.10
2018-07-09T22:21:07.515Z,20.10
2018-07-09T22:23:34.732Z,20.10
2018-07-09T22:26:01.980Z,20.10
2018-07-09T22:28:29.214Z,20.00
2018-07-09T22:31:00.138Z,20.00
2018-07-09T22:33:28.556Z,19.90
2018-07-09T22:35:57.050Z,20.00
2018-07-09T22:38:25.294Z,19.90
2018-07-09T22:40:53.757Z,19.90
2018-07-09T22:43:33.268Z,19.80
2018-07-09T22:46:01.503Z,19.70
2018-07-09T22:48:29.795Z,19.50
2018-07-09T22:50:58.176Z,19.50
2018-07-09T22:53:26.541Z,19.50
2018-07-09T22:56:08.475Z,19.50
2018-07-09T22:58:37.779Z,19.50
2018-07-09T23:01:06.336Z,19.50
2018-07-09T23:03:34.614Z,19.40
2018-07-09T23:06:03.127Z,19.30
2018-07-09T23:08:31.569Z,19.10
2018-07-09T23:12:34.408Z,19.10
2018-07-09T23:17:15.588Z,18.90
2018-07-09T23:22:01.973Z,19.00
2018-07-09T23:24:29.202Z,18.90
2018-07-09T23:26:57.284Z,18.90
2018-07-09T23:29:24.515Z,18.80
2018-07-09T23:31:51.745Z,18.80
2018-07-09T23:34:19.366Z,18.60
2018-07-09T23:36:46.693Z,18.60
2018-07-09T23:39:14.172Z,18.40
2018-07-09T23:41:41.457Z,18.30
2018-07-09T23:44:08.734Z,18.30
2018-07-09T23:46:35.967Z,18.30
2018-07-09T23:49:03.234Z,18.40
2018-07-09T23:51:30.476Z,18.30
2018-07-09T23:53:57.701Z,18.30
2018-07-09T23:58:36.277Z,18.20
